Time;durP1;ratioP1;P1;durP2;ratioP2;P2;SDS_P1;SDS_P2;PMS_P1;PMS_P2;Temp;Humidity;BMP_temperature;BMP_pressure;BME280_temperature;BME280_humidity;BME280_pressure;Samples;Min_cycle;Max_cycle;Signal;HPM_P1;HPM_P2
2022/12/30 00:01:43;;;;;;;48.08;25.40;;;;;;;5.98;59.05;100203.97;4484964;32;33520;-72
2022/12/30 00:04:11;;;;;;;41.97;22.50;;;;;;;6.01;60.13;100204.22;4483683;32;34992;-73
2022/12/30 00:06:39;;;;;;;42.33;24.12;;;;;;;7.77;54.44;100195.97;4477779;31;34527;-73
2022/12/30 00:09:06;;;;;;;43.55;24.33;;;;;;;7.70;54.63;100191.22;4485580;32;34458;-73
2022/12/30 00:11:34;;;;;;;39.60;23.17;;;;;;;8.37;53.15;100190.16;4485123;32;33651;-73
2022/12/30 00:34:11;;;;;;;41.42;22.98;;;;;;;9.63;50.06;100192.22;4485278;31;33399;-73
2022/12/30 00:36:39;;;;;;;46.30;24.12;;;;;;;8.81;52.11;100179.00;4489751;31;34408;-72
2022/12/30 00:39:06;;;;;;;41.28;23.10;;;;;;;9.12;51.53;100180.78;4484510;32;34678;-73
2022/12/30 00:44:20;;;;;;;45.10;23.87;;;;;;;9.11;50.75;100184.13;4477738;31;33537;-72
2022/12/30 00:46:48;;;;;;;45.40;24.75;;;;;;;7.01;56.64;100193.78;4494119;31;34653;-73
2022/12/30 00:57:34;;;;;;;50.17;26.20;;;;;;;9.38;50.48;100195.12;4485059;32;33958;-73
2022/12/30 01:00:02;;;;;;;47.60;25.12;;;;;;;7.53;55.59;100198.78;4483452;32;34579;-73
2022/12/30 01:02:29;;;;;;;46.58;24.37;;;;;;;8.66;52.89;100191.91;4473972;31;33526;-73
2022/12/30 01:04:57;;;;;;;45.92;24.10;;;;;;;7.48;56.04;100195.91;4496772;31;34289;-72
2022/12/30 01:07:27;;;;;;;40.28;22.77;;;;;;;8.16;54.65;100189.78;4479378;31;32219;-73
2022/12/30 01:09:56;;;;;;;41.17;23.02;;;;;;;8.04;55.04;100187.34;4457740;32;32152;-73
2022/12/30 01:12:24;;;;;;;38.08;22.67;;;;;;;8.62;53.66;100183.91;4495967;31;34003;-73
2022/12/30 01:14:53;;;;;;;44.08;23.60;;;;;;;8.73;53.32;100193.19;4490028;31;33561;-73
2022/12/30 01:17:32;;;;;;;45.67;24.00;;;;;;;9.24;52.24;100189.19;4486752;31;33969;-74
2022/12/30 01:20:01;;;;;;;42.30;22.90;;;;;;;8.78;53.54;100173.66;4483031;31;34465;-73
2022/12/30 01:22:28;;;;;;;40.85;22.87;;;;;;;8.96;53.08;100172.94;4481971;32;34222;-73
2022/12/30 01:24:56;;;;;;;41.25;22.85;;;;;;;9.20;52.52;100173.44;4483783;32;33357;-74
2022/12/30 01:27:24;;;;;;;40.75;23.90;;;;;;;10.18;49.85;100159.75;4484419;32;33776;-73
2022/12/30 01:29:51;;;;;;;42.62;23.50;;;;;;;9.79;50.92;100162.00;4486309;31;32740;-73
2022/12/30 01:32:20;;;;;;;44.20;23.15;;;;;;;9.82;50.74;100162.19;4483858;32;34655;-73
2022/12/30 01:34:52;;;;;;;44.40;24.83;;;;;;;8.91;53.11;100158.87;4484396;32;33557;-73
2022/12/30 01:37:20;;;;;;;40.35;23.75;;;;;;;7.38;56.97;100166.88;4484485;32;34520;-73
2022/12/30 01:39:48;;;;;;;43.03;24.37;;;;;;;7.25;57.88;100171.25;4477673;31;34416;-73
2022/12/30 01:42:20;;;;;;;41.05;23.77;;;;;;;7.71;57.10;100167.19;4493471;31;34590;-73
2022/12/30 01:45:12;;;;;;;38.95;23.85;;;;;;;9.12;53.18;100154.94;4493467;31;33442;-74
2022/12/30 01:47:47;;;;;;;39.33;22.92;;;;;;;10.14;50.23;100155.19;4491720;31;33700;-73
2022/12/30 01:50:46;;;;;;;37.42;20.10;;;;;;;9.21;52.11;100158.03;4493652;31;33313;-73
2022/12/30 01:53:17;;;;;;;40.47;22.42;;;;;;;8.68;54.37;100157.56;4486851;31;34498;-73
2022/12/30 01:55:53;;;;;;;39.15;23.35;;;;;;;9.38;52.46;100158.06;4484736;32;34463;-73
2022/12/30 01:58:32;;;;;;;45.40;24.67;;;;;;;9.79;51.00;100151.66;4488587;31;34346;-73
2022/12/30 02:01:00;;;;;;;37.45;22.70;;;;;;;9.55;51.91;100151.22;4483761;31;34706;-73
2022/12/30 02:03:33;;;;;;;38.05;22.00;;;;;;;9.73;51.31;100147.03;4495063;31;34761;-73
2022/12/30 02:06:02;;;;;;;;;;;;;;;9.25;52.57;100136.72;4499718;31;33630;-73
2022/12/30 02:08:33;;;;;;;39.50;23.15;;;;;;;7.97;56.91;100136.16;4492309;31;34276;-73
2022/12/30 02:11:03;;;;;;;40.12;22.95;;;;;;;8.55;54.58;100130.12;4489898;31;35090;-73
2022/12/30 02:13:31;;;;;;;43.15;22.48;;;;;;;9.04;53.46;100125.19;4477350;31;33028;-73
2022/12/30 02:16:18;;;;;;;44.95;24.15;;;;;;;8.57;54.44;100125.94;4481013;31;33433;-73
2022/12/30 02:18:57;;;;;;;39.20;22.77;;;;;;;7.98;56.39;100137.97;4484942;31;34691;-73
2022/12/30 02:21:33;;;;;;;39.22;22.42;;;;;;;8.51;55.19;100135.91;4493781;31;33914;-73
2022/12/30 02:24:22;;;;;;;38.63;23.40;;;;;;;8.11;56.20;100138.69;4492242;31;34220;-73
2022/12/30 02:27:27;;;;;;;42.65;23.77;;;;;;;7.40;58.27;100124.06;4491337;31;33349;-73
2022/12/30 02:29:58;;;;;;;35.70;22.23;;;;;;;8.70;54.72;100120.69;4477177;31;34050;-73
2022/12/30 02:32:41;;;;;;;41.60;22.83;;;;;;;8.81;54.72;100126.47;4495119;31;33493;-73
2022/12/30 02:35:38;;;;;;;40.45;22.00;;;;;;;8.91;54.60;100123.59;4493753;31;33492;-74
2022/12/30 02:38:11;;;;;;;41.33;23.92;;;;;;;8.39;55.54;100120.56;4457483;31;31847;-73
2022/12/30 02:46:51;;;;;;;;;;;;;;;9.09;54.34;100123.72;4459112;31;33413;-74
2022/12/30 02:49:19;;;;;;;39.60;22.27;;;;;;;9.51;53.00;100124.31;4484442;31;33226;-73
2022/12/30 02:54:33;;;;;;;37.55;22.85;;;;;;;8.67;55.67;100128.25;4489261;31;33827;-73
2022/12/30 02:57:01;;;;;;;35.33;21.83;;;;;;;8.97;55.28;100128.22;4483678;31;32600;-73
2022/12/30 03:05:49;;;;;;;37.28;20.98;;;;;;;10.63;50.62;100108.53;4481791;31;33375;-73
2022/12/30 03:08:32;;;;;;;36.72;21.45;;;;;;;9.97;52.13;100116.41;4481534;32;33559;-73
2022/12/30 03:11:18;;;;;;;41.88;22.65;;;;;;;9.88;52.62;100123.69;4485951;31;33190;-74
2022/12/30 03:13:52;;;;;;;38.45;22.90;;;;;;;9.97;52.80;100129.34;4477155;31;34812;-73
2022/12/30 03:16:22;;;;;;;42.40;23.40;;;;;;;10.29;51.90;100118.87;4493236;31;33667;-73
2022/12/30 03:18:51;;;;;;;40.47;21.95;;;;;;;9.93;52.85;100119.66;4493480;31;32857;-73
2022/12/30 03:21:20;;;;;;;43.25;22.55;;;;;;;10.04;52.66;100110.75;4480638;31;33568;-73
2022/12/30 03:29:26;;;;;;;46.15;22.85;;;;;;;10.39;52.50;100109.09;4468962;32;33942;-73
2022/12/30 03:31:54;;;;;;;46.60;21.70;;;;;;;9.59;54.50;100125.59;4482153;31;33885;-73
2022/12/30 03:34:26;;;;;;;49.28;23.02;;;;;;;10.14;53.69;100116.38;4492074;31;34730;-73
2022/12/30 03:37:03;;;;;;;51.97;23.85;;;;;;;10.11;53.69;100108.47;4477508;31;33882;-73
2022/12/30 03:39:35;;;;;;;43.95;20.95;;;;;;;9.62;55.22;100112.84;4486608;31;34477;-73
2022/12/30 03:42:03;;;;;;;47.08;22.00;;;;;;;9.99;54.56;100104.44;4494625;31;33175;-73
2022/12/30 03:44:32;;;;;;;44.00;21.77;;;;;;;10.58;53.13;100104.81;4483333;32;34051;-73
2022/12/30 03:47:01;;;;;;;46.75;22.35;;;;;;;9.99;54.64;100103.56;4476981;32;35885;-73
2022/12/30 03:49:29;;;;;;;52.35;23.08;;;;;;;10.01;54.93;100102.81;4478054;32;32461;-73
2022/12/30 03:51:56;;;;;;;47.95;22.15;;;;;;;10.03;55.20;100101.19;4489864;31;33638;-73
2022/12/30 03:54:31;;;;;;;53.95;23.35;;;;;;;9.83;55.74;100107.00;4482619;31;33790;-73
2022/12/30 03:56:59;;;;;;;55.85;22.45;;;;;;;9.28;57.97;100104.09;4476339;32;34032;-73
2022/12/30 03:59:26;;;;;;;57.00;23.80;;;;;;;8.87;59.67;100105.25;4485413;32;34174;-73
2022/12/30 04:01:54;;;;;;;59.85;24.35;;;;;;;8.93;59.73;100110.78;4493832;31;33503;-73
2022/12/30 04:04:22;;;;;;;53.28;22.75;;;;;;;9.18;59.12;100103.56;4484644;32;33487;-73
2022/12/30 04:06:49;;;;;;;53.60;22.70;;;;;;;10.16;56.12;100092.38;4484983;32;33519;-73
2022/12/30 04:09:16;;;;;;;59.42;24.05;;;;;;;9.09;59.62;100103.06;4492965;31;34497;-74
2022/12/30 04:11:44;;;;;;;55.40;23.80;;;;;;;8.52;61.45;100101.53;4488626;31;34245;-73
2022/12/30 04:14:11;;;;;;;57.53;23.95;;;;;;;8.27;61.82;100110.41;4490296;31;33526;-73
2022/12/30 04:16:39;;;;;;;54.17;24.63;;;;;;;8.43;61.72;100118.28;4490309;31;34576;-73
2022/12/30 04:19:07;;;;;;;50.92;24.10;;;;;;;9.05;60.18;100126.94;4488227;31;33884;-73
2022/12/30 04:21:34;;;;;;;51.88;23.23;;;;;;;9.35;59.61;100119.09;4489830;31;32943;-73
2022/12/30 04:24:02;;;;;;;51.60;24.08;;;;;;;10.20;57.03;100116.72;4491778;31;33446;-73
2022/12/30 04:26:29;;;;;;;56.15;23.50;;;;;;;10.22;56.76;100126.31;4489559;31;33680;-73
2022/12/30 04:28:57;;;;;;;61.03;23.38;;;;;;;10.06;57.08;100120.28;4492869;31;33700;-73
2022/12/30 04:31:24;;;;;;;64.78;24.90;;;;;;;10.29;56.14;100114.56;4490437;31;33513;-73
2022/12/30 04:33:52;;;;;;;48.95;22.30;;;;;;;10.17;56.43;100109.66;4493521;31;34857;-73
2022/12/30 04:36:21;;;;;;;57.80;23.80;;;;;;;10.24;56.30;100105.69;4490825;31;33949;-73
2022/12/30 04:38:48;;;;;;;55.65;24.25;;;;;;;10.77;54.71;100110.09;4490984;31;33894;-73
2022/12/30 04:41:19;;;;;;;53.15;23.60;;;;;;;10.96;54.07;100119.66;4497420;31;34438;-73
2022/12/30 04:43:47;;;;;;;57.42;23.15;;;;;;;10.61;54.91;100117.94;4498038;31;34964;-73
2022/12/30 04:46:15;;;;;;;52.72;24.33;;;;;;;10.76;54.38;100116.09;4486716;31;33815;-73
2022/12/30 04:48:43;;;;;;;56.95;25.50;;;;;;;10.93;53.91;100123.78;4492710;31;33970;-73
2022/12/30 04:51:11;;;;;;;52.42;23.27;;;;;;;10.75;54.41;100127.25;4475292;31;33198;-73
2022/12/30 04:53:39;;;;;;;59.22;24.25;;;;;;;10.96;53.88;100126.53;4488745;31;34128;-74
2022/12/30 04:56:07;;;;;;;60.40;23.27;;;;;;;10.94;53.52;100120.41;4471013;31;36134;-74
2022/12/30 04:58:34;;;;;;;56.10;23.95;;;;;;;10.99;53.63;100126.69;4488475;31;34248;-73
2022/12/30 05:01:02;;;;;;;51.05;23.77;;;;;;;11.29;52.70;100123.78;4483960;31;33643;-73
2022/12/30 05:03:30;;;;;;;51.03;23.23;;;;;;;11.95;50.83;100112.13;4481022;31;33689;-73
2022/12/30 05:05:57;;;;;;;57.38;24.20;;;;;;;11.54;51.41;100124.09;4493472;31;33798;-74
2022/12/30 05:08:25;;;;;;;53.97;25.08;;;;;;;11.31;52.23;100119.56;4495828;31;34351;-73
2022/12/30 05:10:53;;;;;;;46.65;22.65;;;;;;;11.56;51.50;100114.69;4500071;31;33503;-73
2022/12/30 05:13:20;;;;;;;47.75;22.05;;;;;;;10.69;53.37;100120.91;4496135;31;33914;-73
2022/12/30 05:15:48;;;;;;;52.72;23.10;;;;;;;11.08;52.53;100116.75;4489209;31;34852;-74
2022/12/30 05:18:15;;;;;;;50.03;22.98;;;;;;;10.91;52.88;100118.53;4493014;31;33816;-73
2022/12/30 05:20:43;;;;;;;47.75;24.10;;;;;;;11.20;52.30;100117.34;4497883;31;34209;-73
2022/12/30 05:26:13;;;;;;;47.65;21.95;;;;;;;10.75;53.30;100129.84;4500039;31;33826;-73
2022/12/30 05:26:16;;;;;;;47.72;23.25;;;;;;;11.08;52.91;100137.50;4487051;31;34703;-74
2022/12/30 05:28:45;;;;;;;51.37;24.67;;;;;;;10.77;53.11;100146.38;4484411;32;33864;-74
2022/12/30 05:31:14;;;;;;;48.78;22.87;;;;;;;10.00;55.00;100154.50;4489903;31;33753;-73
2022/12/30 05:33:42;;;;;;;51.47;23.80;;;;;;;9.23;57.57;100152.91;4488371;31;33822;-74
2022/12/30 05:36:11;;;;;;;61.45;28.08;;;;;;;8.75;59.96;100142.50;4484603;32;33841;-73
2022/12/30 05:38:38;;;;;;;63.95;27.30;;;;;;;8.74;59.37;100142.41;4483596;32;34453;-73
2022/12/30 05:41:07;;;;;;;58.30;27.13;;;;;;;10.24;54.83;100129.00;4492412;31;33436;-73
2022/12/30 05:43:46;;;;;;;55.47;26.15;;;;;;;10.40;54.61;100136.75;4487785;31;33705;-74
2022/12/30 05:46:13;;;;;;;54.72;25.88;;;;;;;11.38;51.30;100137.19;4488094;31;33798;-74
2022/12/30 05:48:41;;;;;;;49.03;23.85;;;;;;;10.35;54.06;100151.19;4484545;32;33973;-73
2022/12/30 05:51:08;;;;;;;53.85;25.33;;;;;;;10.88;52.47;100151.22;4492515;31;34032;-74
2022/12/30 05:53:36;;;;;;;45.33;23.60;;;;;;;10.55;53.71;100148.72;4491597;31;33737;-73
2022/12/30 05:56:03;;;;;;;43.70;23.02;;;;;;;9.87;54.93;100157.22;4483875;31;33929;-73
2022/12/30 05:58:31;;;;;;;48.22;23.62;;;;;;;9.71;55.88;100158.13;4485056;31;33660;-73
2022/12/30 06:00:59;;;;;;;54.10;24.98;;;;;;;10.15;54.45;100146.66;4488770;31;33980;-73
2022/12/30 06:03:28;;;;;;;46.72;24.70;;;;;;;10.18;54.38;100157.16;4483723;32;33836;-73
2022/12/30 06:06:01;;;;;;;50.92;25.73;;;;;;;10.45;53.80;100154.22;4484423;32;33759;-73
2022/12/30 06:08:29;;;;;;;46.47;24.52;;;;;;;10.49;53.79;100163.94;4489318;31;33722;-73
2022/12/30 06:10:56;;;;;;;44.55;23.33;;;;;;;10.75;52.86;100166.13;4484111;32;33317;-73
2022/12/30 06:13:24;;;;;;;39.72;22.30;;;;;;;11.54;50.40;100159.53;4483700;32;33647;-73
2022/12/30 06:15:55;;;;;;;45.92;22.70;;;;;;;11.59;50.35;100173.63;4484200;32;34008;-73
2022/12/30 06:18:22;;;;;;;50.45;22.08;;;;;;;11.42;50.84;100172.81;4488653;31;34051;-73
2022/12/30 06:20:50;;;;;;;43.38;21.42;;;;;;;11.74;49.76;100174.34;4487111;31;33659;-73
2022/12/30 06:23:17;;;;;;;46.65;21.75;;;;;;;11.52;50.32;100177.62;4496076;31;33695;-73
2022/12/30 06:25:45;;;;;;;52.62;23.17;;;;;;;11.38;50.66;100173.50;4496908;31;33993;-73
2022/12/30 06:28:12;;;;;;;45.00;22.08;;;;;;;10.29;53.36;100181.88;4485988;31;34321;-73
2022/12/30 06:30:40;;;;;;;44.88;23.70;;;;;;;9.18;56.72;100186.28;4486953;31;33439;-73
2022/12/30 06:33:08;;;;;;;49.97;22.73;;;;;;;9.82;55.01;100182.87;4488525;31;33866;-73
2022/12/30 06:35:35;;;;;;;44.08;23.10;;;;;;;10.17;54.19;100182.16;4486411;31;34553;-73
2022/12/30 06:38:03;;;;;;;45.90;22.13;;;;;;;10.74;52.58;100182.50;4486788;31;33839;-73
2022/12/30 06:40:31;;;;;;;43.20;22.10;;;;;;;10.63;52.95;100189.72;4479840;32;32868;-73
2022/12/30 06:42:58;;;;;;;48.58;22.90;;;;;;;10.72;52.91;100189.31;4493662;31;34023;-73
2022/12/30 06:45:26;;;;;;;46.05;24.08;;;;;;;9.95;54.60;100200.84;4490973;31;34040;-73
2022/12/30 06:47:53;;;;;;;62.58;25.85;;;;;;;10.58;53.39;100185.13;4485674;32;33911;-73
2022/12/30 06:50:21;;;;;;;67.25;26.75;;;;;;;9.81;55.80;100196.59;4484196;32;33378;-73
2022/12/30 06:52:49;;;;;;;56.88;25.67;;;;;;;9.51;56.77;100201.88;4482179;31;33700;-74
2022/12/30 06:55:16;;;;;;;64.15;27.40;;;;;;;9.50;57.33;100194.94;4491771;31;33454;-73
2022/12/30 06:57:44;;;;;;;68.45;26.67;;;;;;;10.10;55.70;100199.84;4486972;31;33910;-73
2022/12/30 07:00:12;;;;;;;61.83;26.23;;;;;;;10.19;55.51;100200.34;4492294;31;33925;-73
2022/12/30 07:02:39;;;;;;;59.60;27.48;;;;;;;10.30;55.60;100187.97;4487440;31;32324;-73
2022/12/30 07:05:07;;;;;;;61.15;26.80;;;;;;;10.53;54.86;100191.78;4490631;31;127754;-73
2022/12/30 07:07:35;;;;;;;68.25;25.45;;;;;;;10.24;55.81;100209.25;4496117;31;33625;-73
2022/12/30 07:10:03;;;;;;;66.43;27.30;;;;;;;9.72;57.32;100216.81;4494677;31;33389;-73
2022/12/30 07:12:30;;;;;;;71.12;27.35;;;;;;;9.62;57.76;100224.06;4493448;31;33950;-72
2022/12/30 07:14:58;;;;;;;78.70;27.45;;;;;;;10.43;56.01;100217.22;4495383;31;33458;-73
2022/12/30 07:17:25;;;;;;;61.90;25.77;;;;;;;9.91;57.51;100229.94;4494624;31;34596;-73
2022/12/30 07:19:53;;;;;;;70.60;27.00;;;;;;;10.75;55.18;100225.72;4494950;31;33658;-73
2022/12/30 07:22:21;;;;;;;70.85;27.33;;;;;;;10.64;55.36;100232.06;4493271;31;34522;-73
2022/12/30 07:24:48;;;;;;;73.37;27.20;;;;;;;10.82;54.87;100227.81;4493406;31;33690;-73
2022/12/30 07:27:15;;;;;;;67.03;25.33;;;;;;;10.67;55.37;100231.34;4492921;31;34432;-74
2022/12/30 07:29:43;;;;;;;73.70;29.17;;;;;;;10.91;54.84;100242.06;4497226;31;33745;-74
2022/12/30 07:32:11;;;;;;;76.47;30.45;;;;;;;11.35;53.67;100240.78;4492658;31;34661;-73
2022/12/30 07:34:38;;;;;;;79.57;33.00;;;;;;;11.19;54.13;100245.22;4494137;31;34797;-74
2022/12/30 07:37:10;;;;;;;79.40;32.03;;;;;;;10.40;56.48;100261.06;4491956;31;33711;-73
2022/12/30 07:39:38;;;;;;;73.12;31.67;;;;;;;11.07;54.79;100247.22;4477683;31;33458;-73
2022/12/30 07:42:06;;;;;;;68.32;29.35;;;;;;;11.06;54.92;100245.41;4484105;32;33280;-73
2022/12/30 07:44:34;;;;;;;61.83;27.05;;;;;;;11.34;54.03;100254.56;4485242;32;34687;-73
2022/12/30 07:47:01;;;;;;;66.00;26.42;;;;;;;11.26;54.48;100248.09;4483859;31;34802;-73
2022/12/30 07:49:29;;;;;;;66.87;27.45;;;;;;;11.14;54.68;100253.56;4486076;31;33512;-73
2022/12/30 07:51:57;;;;;;;64.47;26.35;;;;;;;10.83;55.67;100259.81;4498466;31;34249;-73
2022/12/30 07:54:24;;;;;;;67.93;27.45;;;;;;;10.94;55.20;100262.97;4491433;31;33628;-74
2022/12/30 07:56:51;;;;;;;68.47;27.87;;;;;;;10.83;55.89;100257.22;4484949;32;33365;-73
2022/12/30 07:59:19;;;;;;;65.97;27.13;;;;;;;10.69;55.95;100279.84;4478731;32;33176;-73
2022/12/30 08:01:47;;;;;;;78.95;28.38;;;;;;;10.27;57.44;100276.72;4481879;32;34525;-72
2022/12/30 08:04:14;;;;;;;68.05;26.02;;;;;;;10.74;56.16;100272.28;4483146;32;32919;-74
2022/12/30 08:07:02;;;;;;;70.32;26.77;;;;;;;11.08;55.26;100272.31;4482283;32;33582;-73
2022/12/30 08:09:30;;;;;;;66.75;26.50;;;;;;;11.01;55.54;100272.84;4484238;32;33449;-73
2022/12/30 08:11:58;;;;;;;59.03;23.33;;;;;;;11.02;56.12;100269.41;4485068;32;33816;-73
2022/12/30 08:14:25;;;;;;;59.17;24.80;;;;;;;10.80;56.45;100283.88;4484784;32;34766;-73
2022/12/30 08:16:53;;;;;;;62.00;26.12;;;;;;;11.15;55.84;100279.59;4484859;32;33993;-73
2022/12/30 08:19:20;;;;;;;65.55;25.88;;;;;;;11.08;56.02;100281.78;4477989;31;33421;-73
2022/12/30 08:21:48;;;;;;;60.10;24.63;;;;;;;11.23;55.55;100276.50;4493019;31;34585;-74
2022/12/30 08:24:16;;;;;;;61.35;27.13;;;;;;;11.21;55.81;100279.88;4487093;31;34657;-73
2022/12/30 08:26:43;;;;;;;57.72;24.52;;;;;;;11.45;55.07;100284.50;4491008;31;33811;-74
2022/12/30 08:29:11;;;;;;;62.10;25.00;;;;;;;11.48;54.98;100282.06;4491283;31;33624;-73
2022/12/30 08:31:38;;;;;;;64.35;25.45;;;;;;;11.21;55.72;100279.00;4485984;31;34012;-73
2022/12/30 08:34:06;;;;;;;53.33;23.55;;;;;;;11.02;56.23;100282.38;4484529;32;34559;-74
2022/12/30 08:36:33;;;;;;;59.55;25.48;;;;;;;10.80;57.00;100285.59;4480375;31;34501;-74
2022/12/30 08:39:02;;;;;;;55.60;24.17;;;;;;;11.42;55.42;100284.37;4483670;31;32954;-74
2022/12/30 08:41:33;;;;;;;60.72;24.67;;;;;;;11.43;55.35;100291.31;4491246;31;33807;-73
2022/12/30 08:44:02;;;;;;;59.95;23.10;;;;;;;11.49;55.24;100291.63;4485207;31;34816;-73
2022/12/30 08:46:32;;;;;;;52.22;24.60;;;;;;;11.39;55.54;100299.75;4481749;32;34023;-74
2022/12/30 08:49:00;;;;;;;51.78;23.98;;;;;;;12.04;53.91;100295.13;4483147;31;34448;-74
2022/12/30 08:51:28;;;;;;;59.08;24.87;;;;;;;11.77;54.40;100300.75;4475911;31;34487;-74
2022/12/30 08:53:56;;;;;;;62.20;24.65;;;;;;;11.79;54.63;100302.59;4484772;31;34004;-74
2022/12/30 08:56:32;;;;;;;55.50;23.50;;;;;;;11.72;55.01;100299.62;4489537;31;34279;-74
2022/12/30 08:59:00;;;;;;;58.42;24.58;;;;;;;11.80;54.81;100299.19;4490177;31;34142;-74
2022/12/30 09:01:32;;;;;;;56.83;23.02;;;;;;;11.37;56.11;100314.38;4487724;31;34726;-74
2022/12/30 09:04:00;;;;;;;53.90;22.33;;;;;;;11.19;56.25;100307.44;4486376;31;34576;-73
2022/12/30 09:06:29;;;;;;;56.80;23.98;;;;;;;11.81;54.67;100313.06;4490171;31;33935;-73
2022/12/30 09:08:58;;;;;;;56.70;23.50;;;;;;;11.67;55.15;100312.41;4485309;31;33680;-74
2022/12/30 09:11:29;;;;;;;55.22;23.30;;;;;;;11.88;54.46;100312.53;4483979;31;33691;-74
2022/12/30 09:13:58;;;;;;;56.88;23.00;;;;;;;11.94;54.06;100317.16;4492543;31;33855;-74
2022/12/30 09:16:28;;;;;;;49.05;23.25;;;;;;;11.91;54.42;100317.88;4488384;31;33121;-74
2022/12/30 09:18:56;;;;;;;54.03;23.45;;;;;;;11.18;55.84;100323.84;4473668;31;33553;-74
2022/12/30 09:21:24;;;;;;;56.90;22.50;;;;;;;11.68;54.96;100318.47;4496316;31;33927;-74
2022/12/30 09:23:52;;;;;;;56.92;22.67;;;;;;;11.79;54.60;100319.88;4488521;31;34046;-74
2022/12/30 09:26:22;;;;;;;58.72;23.42;;;;;;;12.45;52.70;100319.50;4490623;31;34395;-73
2022/12/30 09:28:50;;;;;;;51.90;22.23;;;;;;;11.68;54.88;100321.06;4482946;31;33328;-73
2022/12/30 09:31:18;;;;;;;49.72;22.73;;;;;;;12.15;53.77;100317.28;4493337;31;33557;-73
2022/12/30 09:33:45;;;;;;;46.70;22.05;;;;;;;11.93;54.04;100313.66;4488495;31;33668;-73
2022/12/30 09:36:13;;;;;;;56.05;24.17;;;;;;;12.11;53.59;100312.75;4492678;31;33584;-74
2022/12/30 09:38:41;;;;;;;55.60;23.75;;;;;;;12.37;52.81;100309.66;4491058;31;33506;-74
2022/12/30 09:41:14;;;;;;;52.75;22.62;;;;;;;12.27;53.10;100297.06;4487526;31;34420;-74
2022/12/30 09:44:07;;;;;;;53.38;22.45;;;;;;;12.46;52.54;100301.41;4489112;31;34794;-73
2022/12/30 09:46:45;;;;;;;57.85;24.60;;;;;;;12.71;51.71;100299.88;4485305;31;34396;-74
2022/12/30 09:49:37;;;;;;;56.08;24.37;;;;;;;12.49;52.28;100308.44;4470269;31;31816;-74
2022/12/30 09:52:09;;;;;;;57.13;23.50;;;;;;;12.17;53.41;100315.66;4480909;31;34178;-74
2022/12/30 09:54:39;;;;;;;53.03;23.15;;;;;;;11.83;54.34;100310.53;4493092;31;34551;-74
2022/12/30 09:59:58;;;;;;;56.10;24.35;;;;;;;12.10;53.55;100298.88;4486599;31;33452;-74
2022/12/30 10:02:32;;;;;;;50.80;22.80;;;;;;;12.36;53.15;100306.97;4480224;31;33002;-74
2022/12/30 10:05:00;;;;;;;;;;;;;;;12.07;53.95;100308.22;4493136;31;34093;-74
2022/12/30 10:07:58;;;;;;;54.13;21.27;;;;;;;12.30;53.40;100310.19;4476068;31;33422;-75
2022/12/30 10:10:37;;;;;;;55.08;22.40;;;;;;;12.96;51.72;100305.34;4485331;31;33609;-76
2022/12/30 10:13:08;;;;;;;52.88;24.12;;;;;;;12.00;54.22;100310.53;4491865;31;33210;-75
2022/12/30 10:15:56;;;;;;;54.55;24.10;;;;;;;12.33;53.50;100305.13;4490853;31;33934;-74
2022/12/30 10:18:39;;;;;;;49.42;22.80;;;;;;;12.79;52.19;100317.59;4469532;31;34003;-75
2022/12/30 10:21:30;;;;;;;52.75;24.25;;;;;;;12.66;52.45;100317.88;4482132;31;33212;-75
2022/12/30 10:24:23;;;;;;;54.38;23.00;;;;;;;12.87;52.10;100314.44;4481717;31;34141;-74
2022/12/30 10:26:51;;;;;;;50.90;23.87;;;;;;;12.33;53.21;100312.94;4480050;31;33839;-73
2022/12/30 10:29:33;;;;;;;56.75;23.10;;;;;;;12.21;53.52;100312.38;4488994;31;33364;-73
2022/12/30 10:32:16;;;;;;;54.67;24.23;;;;;;;12.52;52.71;100314.66;4481131;31;33498;-73
2022/12/30 10:34:45;;;;;;;56.25;24.12;;;;;;;12.40;53.15;100314.13;4478615;31;33811;-73
2022/12/30 10:37:26;;;;;;;50.10;23.92;;;;;;;12.20;54.13;100320.97;4480819;31;34872;-73
2022/12/30 10:39:53;;;;;;;56.13;23.73;;;;;;;12.64;52.87;100322.13;4477816;31;33706;-73
2022/12/30 10:42:50;;;;;;;53.47;23.52;;;;;;;11.57;55.67;100321.44;4498695;31;34060;-73
2022/12/30 10:45:42;;;;;;;55.00;23.20;;;;;;;11.40;56.28;100323.19;4481139;31;34731;-73
2022/12/30 10:48:29;;;;;;;47.15;23.23;;;;;;;10.36;59.55;100331.63;4489646;31;34676;-73
2022/12/30 10:50:56;;;;;;;59.53;25.40;;;;;;;11.88;55.58;100322.91;4485433;31;34780;-73
2022/12/30 10:53:26;;;;;;;64.47;29.33;;;;;;;9.96;59.89;100325.94;4490069;31;33120;-73
2022/12/30 10:55:55;;;;;;;69.25;28.40;;;;;;;9.40;62.74;100332.25;4486669;31;34240;-72
2022/12/30 10:58:27;;;;;;;57.08;24.48;;;;;;;10.92;58.95;100326.78;4485377;31;34163;-73
2022/12/30 11:00:54;;;;;;;54.97;23.90;;;;;;;12.46;53.97;100313.47;4480800;31;34131;-73
2022/12/30 11:03:37;;;;;;;61.92;25.88;;;;;;;12.14;54.35;100305.09;4495710;31;34211;-74
2022/12/30 11:06:18;;;;;;;62.88;26.35;;;;;;;12.09;54.52;100298.81;4481158;31;34506;-72
2022/12/30 11:08:47;;;;;;;57.22;23.83;;;;;;;12.02;54.80;100301.94;4488256;31;33701;-73
2022/12/30 11:11:15;;;;;;;57.67;24.02;;;;;;;11.87;55.23;100313.34;4495223;31;34470;-73
2022/12/30 11:16:42;;;;;;;58.47;25.12;;;;;;;13.69;50.64;100301.44;4491535;31;34571;-73
2022/12/30 11:19:23;;;;;;;47.47;22.27;;;;;;;11.23;56.42;100318.87;4477258;31;32595;-74
2022/12/30 11:21:54;;;;;;;58.28;24.05;;;;;;;12.52;54.08;100316.38;4492476;31;34602;-73
2022/12/30 11:24:22;;;;;;;51.92;24.87;;;;;;;11.07;57.16;100317.22;4495131;31;33327;-74
2022/12/30 11:26:50;;;;;;;52.83;24.45;;;;;;;10.78;58.36;100314.00;4487557;31;34039;-74
2022/12/30 11:29:20;;;;;;;60.42;25.30;;;;;;;10.35;60.11;100311.75;4483136;31;33951;-74
2022/12/30 11:31:50;;;;;;;60.53;25.92;;;;;;;10.22;61.35;100314.44;4486381;31;33709;-73
2022/12/30 11:34:29;;;;;;;53.78;24.65;;;;;;;10.03;61.94;100323.78;4482926;31;33405;-73
2022/12/30 11:36:57;;;;;;;53.50;24.83;;;;;;;11.61;56.94;100318.16;4490459;31;34551;-75
2022/12/30 11:39:26;;;;;;;54.10;24.17;;;;;;;13.32;51.65;100312.94;4490533;31;34560;-73
2022/12/30 11:41:56;;;;;;;56.63;26.15;;;;;;;11.84;56.59;100320.09;4487189;31;33965;-73
2022/12/30 11:44:27;;;;;;;56.70;27.15;;;;;;;8.63;67.39;100343.22;4486058;31;33527;-73
2022/12/30 11:46:59;;;;;;;58.05;25.62;;;;;;;7.25;73.58;100353.31;4490041;31;33829;-73
2022/12/30 11:49:34;;;;;;;58.87;26.60;;;;;;;9.01;66.64;100347.22;4479219;31;34726;-73
2022/12/30 11:52:23;;;;;;;65.45;27.23;;;;;;;9.76;65.72;100333.47;4489852;31;33403;-74
2022/12/30 11:54:54;;;;;;;56.47;26.05;;;;;;;10.20;64.31;100344.53;4488597;31;33034;-73
2022/12/30 11:57:37;;;;;;;57.75;26.87;;;;;;;11.69;58.53;100341.91;4484443;32;33728;-72
2022/12/30 12:00:24;;;;;;;60.20;27.55;;;;;;;10.49;61.67;100350.41;4494111;31;33862;-73
2022/12/30 12:03:01;;;;;;;59.22;26.52;;;;;;;9.20;67.34;100350.09;4487514;31;32391;-72
2022/12/30 12:05:39;;;;;;;57.85;26.12;;;;;;;10.35;62.81;100348.00;4489491;31;33495;-72
2022/12/30 12:08:26;;;;;;;55.97;27.90;;;;;;;10.89;59.97;100357.72;4482700;31;34579;-74
2022/12/30 12:10:59;;;;;;;60.78;29.92;;;;;;;10.32;62.69;100354.69;4476029;31;33683;-75
2022/12/30 12:13:45;;;;;;;60.22;28.52;;;;;;;10.40;62.58;100354.28;4490021;31;33924;-74
2022/12/30 12:16:26;;;;;;;64.62;30.98;;;;;;;10.00;63.67;100358.94;4486991;31;33685;-74
2022/12/30 12:18:58;;;;;;;63.75;31.33;;;;;;;8.97;66.15;100358.19;4474889;32;34669;-74
2022/12/30 12:21:27;;;;;;;58.67;30.48;;;;;;;8.17;69.57;100366.13;4481851;31;34110;-74
2022/12/30 12:24:23;;;;;;;66.82;30.12;;;;;;;8.22;71.97;100364.75;4484916;31;34696;-73
2022/12/30 12:26:54;;;;;;;65.15;29.30;;;;;;;9.41;65.73;100360.81;4481262;31;31900;-73
2022/12/30 12:29:22;;;;;;;57.55;27.85;;;;;;;8.78;68.38;100364.81;4495761;31;34336;-74